Time;durP1;ratioP1;P1;durP2;ratioP2;P2;SDS_P1;SDS_P2;PMS_P1;PMS_P2;Temp;Humidity;BMP_temperature;BMP_pressure;BME280_temperature;BME280_humidity;BME280_pressure;Samples;Min_cycle;Max_cycle;Signal;HPM_P1;HPM_P2
2023/01/08 00:01:34;;;;;;;8.57;7.77;;;8.50;99.90;;;;;;5056518;28;20277;-44
2023/01/08 00:03:59;;;;;;;8.33;7.53;;;8.50;99.90;;;;;;5057578;28;20514;-44
2023/01/08 00:06:25;;;;;;;7.67;6.97;;;8.50;99.90;;;;;;5056837;28;20186;-44
2023/01/08 00:08:51;;;;;;;8.53;7.40;;;8.40;99.90;;;;;;5057473;28;20288;-44
2023/01/08 00:11:16;;;;;;;8.53;7.50;;;8.40;99.90;;;;;;5057572;28;20821;-43
2023/01/08 00:13:42;;;;;;;8.90;8.10;;;8.40;99.90;;;;;;5057304;28;20272;-45
2023/01/08 00:16:10;;;;;;;8.83;7.93;;;8.40;1.00;;;;;;5057629;28;20209;-44
2023/01/08 00:18:36;;;;;;;9.30;8.40;;;8.30;1.00;;;;;;5056803;28;20288;-44
2023/01/08 00:21:02;;;;;;;10.27;9.27;;;8.30;1.00;;;;;;5055829;28;20781;-44
2023/01/08 00:23:28;;;;;;;12.63;8.47;;;8.30;1.00;;;;;;5055208;28;20189;-44
2023/01/08 00:25:54;;;;;;;8.83;7.97;;;8.30;1.00;;;;;;5055384;28;20539;-44
2023/01/08 00:28:20;;;;;;;8.97;8.07;;;8.20;1.00;;;;;;5054565;28;20421;-44
2023/01/08 00:30:46;;;;;;;9.13;7.90;;;8.20;1.00;;;;;;5056835;28;20474;-44
2023/01/08 00:33:13;;;;;;;9.30;8.40;;;8.20;1.00;;;;;;5056915;28;20631;-44
2023/01/08 00:35:39;;;;;;;9.93;8.60;;;8.20;1.00;;;;;;5054962;28;20420;-44
2023/01/08 00:38:06;;;;;;;9.80;8.80;;;8.20;1.00;;;;;;5055046;28;20444;-44
2023/01/08 00:40:35;;;;;;;8.23;7.37;;;8.20;1.00;;;;;;5054936;28;20428;-44
2023/01/08 00:43:01;;;;;;;9.00;8.10;;;8.10;1.00;;;;;;5055187;28;20427;-44
2023/01/08 00:45:27;;;;;;;9.77;7.97;;;8.10;1.00;;;;;;5055470;28;20903;-43
2023/01/08 00:47:52;;;;;;;8.20;7.40;;;8.10;1.00;;;;;;5054474;28;20503;-44
2023/01/08 00:50:18;;;;;;;9.10;8.13;;;8.10;1.00;;;;;;5055118;28;20216;-44
2023/01/08 00:52:44;;;;;;;9.30;8.40;;;8.10;1.00;;;;;;5054459;28;20169;-44
2023/01/08 00:55:09;;;;;;;8.50;7.70;;;8.10;1.00;;;;;;5054947;28;20185;-44
2023/01/08 00:57:36;;;;;;;9.17;8.20;;;8.10;1.00;;;;;;5055838;28;20607;-44
2023/01/08 01:00:04;;;;;;;8.50;7.60;;;8.10;1.00;;;;;;5056429;28;20174;-44
2023/01/08 01:02:30;;;;;;;9.00;8.10;;;8.10;1.00;;;;;;5058304;28;20493;-44
2023/01/08 01:04:56;;;;;;;9.00;8.10;;;8.00;1.00;;;;;;5058844;28;20424;-44
2023/01/08 01:07:21;;;;;;;9.17;8.23;;;8.00;1.00;;;;;;5042031;28;20182;-44
2023/01/08 01:09:47;;;;;;;9.40;8.43;;;8.00;1.00;;;;;;5058554;28;20208;-44
2023/01/08 01:12:13;;;;;;;10.03;7.50;;;8.00;1.00;;;;;;5058675;28;20431;-44
2023/01/08 01:14:38;;;;;;;7.90;7.10;;;8.00;1.00;;;;;;5058015;28;20205;-44
2023/01/08 01:17:04;;;;;;;9.13;8.23;;;8.00;1.00;;;;;;5059571;28;20441;-43
2023/01/08 01:19:30;;;;;;;9.00;8.10;;;8.00;1.00;;;;;;5058733;28;20192;-44
2023/01/08 01:21:55;;;;;;;9.00;8.07;;;8.00;1.00;;;;;;5059189;28;20232;-44
2023/01/08 01:24:23;;;;;;;9.80;8.80;;;8.00;1.00;;;;;;5058747;28;20201;-47
2023/01/08 01:26:50;;;;;;;8.47;7.57;;;7.90;1.00;;;;;;5059511;28;20184;-44
2023/01/08 01:29:16;;;;;;;9.90;8.67;;;7.90;1.00;;;;;;5060617;28;20458;-44
2023/01/08 01:31:42;;;;;;;6.97;6.37;;;7.90;1.00;;;;;;5059863;28;20415;-44
2023/01/08 01:34:08;;;;;;;9.43;8.30;;;7.90;1.00;;;;;;5058976;28;20432;-44
2023/01/08 01:36:34;;;;;;;8.73;7.87;;;7.90;1.00;;;;;;5058495;28;20463;-44
2023/01/08 01:39:00;;;;;;;9.10;8.13;;;7.90;1.00;;;;;;5056981;28;20443;-44
2023/01/08 01:41:27;;;;;;;10.07;8.47;;;7.90;1.00;;;;;;5059313;28;20185;-44
2023/01/08 01:44:14;;;;;;;8.90;8.00;;;7.90;1.00;;;;;;5059386;28;20169;-44
2023/01/08 01:46:40;;;;;;;8.20;7.27;;;7.90;1.00;;;;;;5047733;28;20475;-44
2023/01/08 01:49:16;;;;;;;7.20;6.60;;;7.90;1.00;;;;;;5058512;28;20434;-44
2023/01/08 01:51:46;;;;;;;9.20;8.30;;;8.00;1.00;;;;;;5057695;28;20173;-44
2023/01/08 01:54:12;;;;;;;8.13;7.00;;;7.90;1.00;;;;;;5057989;28;20704;-44
2023/01/08 01:56:38;;;;;;;8.50;7.70;;;8.00;1.00;;;;;;5059169;28;20469;-43
2023/01/08 01:59:04;;;;;;;7.97;7.17;;;8.00;1.00;;;;;;5058258;28;20416;-44
2023/01/08 02:01:30;;;;;;;8.10;7.30;;;8.00;1.00;;;;;;5057058;28;20196;-43
2023/01/08 02:03:55;;;;;;;8.67;7.77;;;8.00;1.00;;;;;;5057285;28;20446;-44
2023/01/08 02:06:36;;;;;;;8.10;7.30;;;8.00;1.00;;;;;;5057854;28;20456;-44
2023/01/08 02:09:17;;;;;;;9.10;7.00;;;8.00;1.00;;;;;;5057970;28;20656;-45
2023/01/08 02:12:15;;;;;;;8.17;6.60;;;8.10;1.00;;;;;;5057155;28;20427;-45
2023/01/08 02:15:03;;;;;;;8.67;7.70;;;8.10;1.00;;;;;;5058403;28;20661;-45
2023/01/08 02:17:56;;;;;;;8.53;7.70;;;8.10;1.00;;;;;;5058939;28;20549;-45
2023/01/08 02:20:31;;;;;;;8.30;7.50;;;8.10;1.00;;;;;;5058473;28;20511;-43
2023/01/08 02:23:18;;;;;;;8.40;7.60;;;8.20;1.00;;;;;;5059306;28;20420;-44
2023/01/08 02:26:02;;;;;;;8.40;7.60;;;8.20;1.00;;;;;;5059290;28;20837;-44
2023/01/08 02:28:30;;;;;;;7.53;6.83;;;8.20;99.90;;;;;;5058784;28;20526;-44
2023/01/08 02:30:56;;;;;;;6.83;6.13;;;8.20;99.90;;;;;;5057816;28;20804;-44
2023/01/08 02:33:27;;;;;;;7.80;7.10;;;8.20;99.90;;;;;;5055722;28;20529;-43
2023/01/08 02:36:11;;;;;;;7.93;7.13;;;8.20;99.90;;;;;;5054870;28;20502;-43
2023/01/08 02:38:44;;;;;;;7.33;6.30;;;8.20;99.90;;;;;;5055678;28;20420;-45
2023/01/08 02:41:11;;;;;;;7.63;6.83;;;8.30;99.90;;;;;;5053386;28;21082;-45
2023/01/08 02:43:48;;;;;;;8.90;7.20;;;8.30;99.90;;;;;;5055311;28;20435;-45
2023/01/08 02:46:18;;;;;;;6.93;6.30;;;8.30;99.90;;;;;;5055331;28;20553;-44
2023/01/08 02:48:48;;;;;;;8.10;6.67;;;8.30;99.90;;;;;;5055023;28;20534;-45
2023/01/08 02:52:00;;;;;;;7.53;6.70;;;8.30;99.90;;;;;;5057896;28;20933;-42
2023/01/08 02:54:30;;;;;;;7.07;6.37;;;8.30;99.90;;;;;;5054629;28;20440;-43
2023/01/08 02:57:04;;;;;;;6.77;6.10;;;8.30;99.90;;;;;;5056540;28;20455;-42
2023/01/08 02:59:32;;;;;;;6.97;6.27;;;8.30;99.90;;;;;;5056911;28;20672;-42
2023/01/08 03:01:58;;;;;;;7.10;6.20;;;8.30;99.90;;;;;;5056493;28;20412;-43
2023/01/08 03:04:24;;;;;;;6.93;6.23;;;8.30;99.90;;;;;;5058161;28;20842;-42
2023/01/08 03:06:50;;;;;;;7.90;6.63;;;8.30;99.90;;;;;;5057783;28;20456;-44
2023/01/08 03:09:16;;;;;;;7.90;7.10;;;8.30;99.90;;;;;;5057789;28;20452;-43
2023/01/08 03:11:55;;;;;;;7.97;7.17;;;8.40;99.90;;;;;;5056647;28;20312;-43
2023/01/08 03:14:58;;;;;;;7.43;6.73;;;8.40;99.90;;;;;;5056333;28;20875;-43
2023/01/08 03:17:31;;;;;;;7.40;6.67;;;8.40;99.90;;;;;;5057839;28;20431;-43
2023/01/08 03:20:05;;;;;;;7.07;6.37;;;8.40;99.60;;;;;;5057951;28;20432;-43
2023/01/08 03:22:31;;;;;;;8.23;6.87;;;8.40;97.90;;;;;;5057184;28;20482;-43
2023/01/08 03:24:58;;;;;;;9.03;6.60;;;8.40;84.40;;;;;;5056015;28;20745;-44
2023/01/08 03:27:27;;;;;;;8.20;7.40;;;8.40;58.20;;;;;;5057234;28;20435;-43
2023/01/08 03:29:56;;;;;;;8.13;7.43;;;8.40;18.90;;;;;;5054957;28;20554;-43
2023/01/08 03:32:23;;;;;;;8.87;6.77;;;8.40;13.80;;;;;;5055961;28;20736;-43
2023/01/08 03:34:52;;;;;;;7.57;6.83;;;8.40;6.70;;;;;;5054852;28;20755;-43
2023/01/08 03:37:26;;;;;;;6.93;6.20;;;8.40;5.50;;;;;;5056664;28;20847;-43
2023/01/08 03:39:57;;;;;;;7.03;6.03;;;8.40;7.70;;;;;;5057583;28;20423;-43
2023/01/08 03:42:23;;;;;;;7.43;6.53;;;8.40;4.60;;;;;;5056826;28;20434;-43
2023/01/08 03:44:49;;;;;;;7.67;6.87;;;8.40;1.00;;;;;;5056407;28;20515;-44
2023/01/08 03:47:15;;;;;;;7.90;7.10;;;8.40;1.00;;;;;;5056676;28;20508;-43
2023/01/08 03:49:42;;;;;;;8.83;8.03;;;8.40;1.00;;;;;;5056948;28;20213;-43
2023/01/08 03:52:08;;;;;;;8.27;6.93;;;8.40;1.00;;;;;;5055840;28;20747;-43
2023/01/08 03:54:35;;;;;;;7.50;6.27;;;8.40;1.00;;;;;;5056129;28;20420;-43
2023/01/08 03:57:01;;;;;;;8.10;6.67;;;8.40;1.00;;;;;;5057489;28;20188;-43
2023/01/08 03:59:27;;;;;;;7.30;6.60;;;8.40;1.00;;;;;;5055381;28;20432;-43
2023/01/08 04:01:52;;;;;;;8.40;7.50;;;8.30;1.00;;;;;;5056111;28;20419;-43
2023/01/08 04:04:18;;;;;;;8.93;6.53;;;8.40;1.00;;;;;;5055540;28;20550;-43
2023/01/08 04:06:43;;;;;;;8.07;6.10;;;8.30;1.00;;;;;;5055772;28;20177;-44
2023/01/08 04:09:10;;;;;;;7.87;6.43;;;8.40;1.00;;;;;;5056651;28;20193;-43
2023/01/08 04:11:35;;;;;;;6.40;5.80;;;8.40;1.00;;;;;;5057129;28;20174;-45
2023/01/08 04:14:01;;;;;;;8.20;6.73;;;8.40;1.00;;;;;;5056803;28;20495;-45
2023/01/08 04:16:26;;;;;;;6.53;5.83;;;8.40;1.00;;;;;;5057162;28;20469;-45
2023/01/08 04:18:52;;;;;;;6.47;5.70;;;8.40;1.00;;;;;;5056785;28;20170;-44
2023/01/08 04:21:18;;;;;;;7.13;6.10;;;8.40;1.00;;;;;;5055932;28;20181;-45
2023/01/08 04:23:43;;;;;;;9.07;6.60;;;8.40;1.00;;;;;;5056391;28;20197;-43
2023/01/08 04:26:09;;;;;;;6.97;6.27;;;8.40;1.00;;;;;;5056026;28;20457;-45
2023/01/08 04:28:35;;;;;;;7.17;6.40;;;8.40;1.00;;;;;;5056777;28;20204;-45
2023/01/08 04:31:08;;;;;;;7.60;6.70;;;8.40;1.00;;;;;;5054912;28;20209;-45
2023/01/08 04:33:34;;;;;;;7.17;6.47;;;8.50;1.00;;;;;;5056679;28;20423;-42
2023/01/08 04:36:00;;;;;;;7.80;6.87;;;8.50;1.00;;;;;;5055789;28;20424;-43
2023/01/08 04:38:26;;;;;;;6.73;6.07;;;8.50;1.00;;;;;;5056958;28;20416;-44
2023/01/08 04:41:01;;;;;;;6.40;5.60;;;8.50;99.90;;;;;;5056368;28;20421;-44
2023/01/08 04:43:27;;;;;;;6.43;5.80;;;8.50;99.90;;;;;;5055343;28;20180;-44
2023/01/08 04:45:57;;;;;;;6.60;6.00;;;8.50;99.90;;;;;;5055215;28;20933;-44
2023/01/08 04:48:23;;;;;;;7.03;6.13;;;8.60;99.90;;;;;;5055099;28;20427;-45
2023/01/08 04:50:50;;;;;;;6.53;5.60;;;8.60;99.90;;;;;;5054623;28;20475;-45
2023/01/08 04:53:15;;;;;;;6.07;5.40;;;8.60;99.90;;;;;;5054936;28;20185;-45
2023/01/08 04:55:41;;;;;;;5.10;4.70;;;8.60;99.90;;;;;;5054831;28;20420;-44
2023/01/08 04:58:07;;;;;;;5.20;4.53;;;8.60;99.90;;;;;;5055995;28;20512;-44
2023/01/08 05:00:32;;;;;;;4.40;3.77;;;8.70;99.90;;;;;;5056226;28;20185;-44
2023/01/08 05:02:58;;;;;;;7.10;3.50;;;8.70;99.90;;;;;;5056362;28;20177;-44
2023/01/08 05:06:04;;;;;;;3.43;3.13;;;8.70;1.00;;;;;;5056149;28;20228;-44
2023/01/08 05:08:30;;;;;;;3.50;2.70;;;8.70;1.00;;;;;;5056248;28;20213;-44
2023/01/08 05:10:58;;;;;;;2.93;2.63;;;8.80;41.10;;;;;;5056184;28;20499;-44
2023/01/08 05:13:24;;;;;;;2.60;2.40;;;8.80;99.90;;;;;;5055837;28;20753;-44
2023/01/08 05:15:49;;;;;;;4.00;2.80;;;8.80;99.90;;;;;;5056186;28;20531;-44
2023/01/08 05:18:15;;;;;;;3.97;3.53;;;8.80;1.00;;;;;;5056314;28;20243;-42
2023/01/08 05:20:40;;;;;;;3.90;3.50;;;8.80;1.00;;;;;;5055810;28;20201;-44
2023/01/08 05:23:06;;;;;;;3.47;2.83;;;8.80;1.00;;;;;;5056168;28;20265;-43
2023/01/08 05:25:31;;;;;;;3.30;2.70;;;8.80;1.00;;;;;;5056033;28;20177;-44
2023/01/08 05:27:57;;;;;;;4.17;3.10;;;8.80;1.00;;;;;;5056156;28;20178;-44
2023/01/08 05:30:23;;;;;;;2.87;2.27;;;8.80;1.00;;;;;;5055891;28;20205;-43
2023/01/08 05:32:48;;;;;;;3.17;2.43;;;8.80;1.00;;;;;;5056312;28;20235;-44
2023/01/08 05:35:14;;;;;;;3.20;2.60;;;8.80;1.00;;;;;;5056122;28;20177;-44
2023/01/08 05:37:40;;;;;;;3.30;3.00;;;8.90;1.00;;;;;;5056346;28;20166;-43
2023/01/08 05:40:06;;;;;;;3.40;3.10;;;8.80;1.00;;;;;;5056604;28;20202;-44
2023/01/08 05:42:34;;;;;;;2.70;2.40;;;8.80;1.00;;;;;;5056285;28;20182;-45
2023/01/08 05:45:00;;;;;;;2.63;2.40;;;8.90;10.70;;;;;;5055902;28;20570;-44
2023/01/08 05:47:29;;;;;;;4.30;2.43;;;8.90;56.20;;;;;;5056832;28;20874;-44
2023/01/08 05:49:55;;;;;;;4.20;2.10;;;8.90;99.90;;;;;;5058123;28;20867;-43
2023/01/08 05:52:20;;;;;;;3.30;1.97;;;8.90;99.90;;;;;;5059945;28;20416;-43
2023/01/08 05:54:46;;;;;;;2.67;1.93;;;8.90;99.90;;;;;;5059973;28;20839;-43
2023/01/08 05:57:11;;;;;;;2.30;2.10;;;8.90;99.90;;;;;;5059642;28;20200;-43
2023/01/08 05:59:37;;;;;;;2.53;1.80;;;8.90;1.00;;;;;;5059185;28;20174;-43
2023/01/08 06:02:03;;;;;;;2.20;2.00;;;8.90;1.00;;;;;;5058686;28;20178;-43
2023/01/08 06:04:28;;;;;;;2.93;2.07;;;8.90;1.00;;;;;;5058692;28;20512;-43
2023/01/08 06:06:54;;;;;;;2.97;2.20;;;8.90;24.90;;;;;;5058846;28;20247;-43
2023/01/08 06:09:19;;;;;;;2.33;2.13;;;8.80;97.90;;;;;;5058788;28;20581;-43
2023/01/08 06:11:46;;;;;;;2.90;2.20;;;8.80;99.90;;;;;;5058771;28;20209;-43
2023/01/08 06:14:22;;;;;;;2.30;1.80;;;8.80;99.90;;;;;;5058268;28;20557;-43
2023/01/08 06:16:58;;;;;;;2.07;1.83;;;8.80;99.90;;;;;;5055723;28;20535;-43
2023/01/08 06:19:24;;;;;;;2.60;2.10;;;8.80;99.90;;;;;;5059038;28;21481;-43
2023/01/08 06:21:50;;;;;;;2.00;1.80;;;8.80;99.90;;;;;;5058386;28;20466;-43
2023/01/08 06:24:15;;;;;;;3.13;2.83;;;8.80;99.90;;;;;;5057613;28;20544;-44
2023/01/08 06:26:41;;;;;;;2.17;1.87;;;8.80;99.90;;;;;;5058040;28;20577;-44
2023/01/08 06:29:07;;;;;;;2.57;1.57;;;8.80;99.90;;;;;;5057690;28;20432;-45
2023/01/08 06:31:33;;;;;;;2.20;1.90;;;8.90;99.90;;;;;;5057897;28;20307;-45
2023/01/08 06:33:59;;;;;;;2.23;1.70;;;8.80;99.90;;;;;;5058748;28;20490;-45
2023/01/08 06:36:24;;;;;;;2.83;1.50;;;8.80;99.90;;;;;;5058837;28;20448;-45
2023/01/08 06:38:50;;;;;;;2.60;1.90;;;8.80;99.90;;;;;;5057992;28;20240;-45
2023/01/08 06:41:15;;;;;;;1.70;1.40;;;8.80;99.90;;;;;;5058294;28;20336;-45
2023/01/08 06:43:41;;;;;;;1.93;1.67;;;8.80;99.90;;;;;;5056073;28;20185;-45
2023/01/08 06:46:07;;;;;;;1.80;1.20;;;8.90;99.90;;;;;;5055627;28;20239;-45
2023/01/08 06:48:33;;;;;;;2.80;1.60;;;8.90;99.90;;;;;;5054570;28;20190;-45
2023/01/08 06:51:00;;;;;;;3.73;1.83;;;8.90;99.90;;;;;;5055695;28;20678;-45
2023/01/08 06:53:26;;;;;;;2.10;1.90;;;8.90;99.90;;;;;;5054755;28;20451;-45
2023/01/08 06:55:57;;;;;;;1.90;1.60;;;8.90;99.90;;;;;;5056588;28;20440;-43
2023/01/08 06:58:23;;;;;;;2.80;2.10;;;8.90;1.00;;;;;;5055326;28;20265;-44
2023/01/08 07:00:49;;;;;;;3.23;1.80;;;8.80;1.00;;;;;;5054518;28;20983;-44
2023/01/08 07:03:15;;;;;;;2.43;1.73;;;8.80;1.00;;;;;;5053316;28;20427;-44
2023/01/08 07:05:40;;;;;;;2.67;1.70;;;8.80;1.00;;;;;;5055492;28;20178;-44
2023/01/08 07:08:15;;;;;;;2.20;2.00;;;8.80;1.00;;;;;;5056010;28;20177;-45
2023/01/08 07:10:42;;;;;;;1.93;1.73;;;8.80;1.00;;;;;;5056067;28;20579;-43
2023/01/08 07:13:08;;;;;;;4.27;2.60;;;8.80;1.00;;;;;;5053679;28;20424;-44
2023/01/08 07:15:36;;;;;;;1.90;1.63;;;8.80;1.00;;;;;;5055200;28;20945;-43
2023/01/08 07:18:06;;;;;;;1.93;1.63;;;8.70;23.10;;;;;;5056647;28;20428;-43
2023/01/08 07:20:33;;;;;;;2.60;1.57;;;8.80;30.00;;;;;;5056503;28;20431;-44
2023/01/08 07:23:06;;;;;;;1.83;1.30;;;8.80;91.60;;;;;;5057347;28;20446;-44
2023/01/08 07:25:32;;;;;;;2.03;1.80;;;8.80;99.90;;;;;;5056979;28;20416;-43
2023/01/08 07:27:59;;;;;;;2.30;1.77;;;8.70;99.90;;;;;;5057939;28;20492;-44
2023/01/08 07:30:25;;;;;;;2.00;1.60;;;8.80;99.90;;;;;;5057171;28;20472;-44
2023/01/08 07:32:51;;;;;;;2.30;1.70;;;8.80;99.90;;;;;;5057629;28;20681;-44
2023/01/08 07:35:17;;;;;;;3.00;1.80;;;8.80;99.90;;;;;;5056723;28;20420;-44
2023/01/08 07:37:42;;;;;;;1.83;1.40;;;8.70;99.90;;;;;;5058236;28;20174;-44
2023/01/08 07:40:09;;;;;;;3.30;1.73;;;8.80;99.90;;;;;;5056133;28;20177;-45
2023/01/08 07:42:35;;;;;;;1.90;1.67;;;8.80;99.90;;;;;;5056636;28;20264;-45
2023/01/08 07:45:01;;;;;;;2.33;2.00;;;8.80;1.00;;;;;;5055923;28;20519;-45
2023/01/08 07:47:27;;;;;;;1.70;1.50;;;8.80;1.00;;;;;;5057123;28;20458;-45
2023/01/08 07:49:52;;;;;;;1.70;1.37;;;8.80;1.00;;;;;;5056266;28;20205;-45
2023/01/08 07:52:18;;;;;;;1.67;1.37;;;8.80;1.00;;;;;;5055177;28;20190;-45
2023/01/08 07:54:44;;;;;;;1.83;1.63;;;8.80;1.00;;;;;;5053454;28;20281;-44
2023/01/08 07:57:09;;;;;;;2.67;1.60;;;8.80;1.00;;;;;;5055027;28;20173;-44
2023/01/08 07:59:35;;;;;;;1.67;1.30;;;8.80;1.00;;;;;;5055728;28;20178;-44
2023/01/08 08:02:01;;;;;;;2.20;1.60;;;8.80;1.00;;;;;;5055984;28;20189;-44
2023/01/08 08:04:27;;;;;;;1.97;1.37;;;8.80;1.00;;;;;;5057284;28;20205;-44
2023/01/08 08:06:53;;;;;;;2.70;1.50;;;8.80;1.00;;;;;;5056929;28;20431;-43
2023/01/08 08:09:19;;;;;;;1.80;1.30;;;8.80;1.00;;;;;;5056511;28;20604;-43
2023/01/08 08:11:45;;;;;;;1.87;1.30;;;8.80;1.00;;;;;;5056507;28;20720;-43
2023/01/08 08:14:10;;;;;;;1.70;1.60;;;8.80;1.00;;;;;;5056052;28;20243;-44
2023/01/08 08:16:36;;;;;;;1.40;1.30;;;8.80;1.00;;;;;;5055631;28;20584;-44
2023/01/08 08:19:01;;;;;;;3.10;1.40;;;8.80;1.00;;;;;;5055137;28;20275;-43
2023/01/08 08:21:28;;;;;;;1.90;1.53;;;8.80;1.00;;;;;;5056483;28;20216;-43
2023/01/08 08:23:54;;;;;;;2.03;1.83;;;8.80;1.00;;;;;;5054540;28;20188;-43
2023/01/08 08:26:20;;;;;;;1.97;1.47;;;8.80;1.00;;;;;;5055253;28;20707;-44
2023/01/08 08:28:45;;;;;;;2.20;1.60;;;8.80;1.00;;;;;;5055227;28;20485;-44
2023/01/08 08:31:11;;;;;;;2.47;1.23;;;8.80;1.00;;;;;;5056359;28;20723;-44
2023/01/08 08:33:37;;;;;;;1.67;1.30;;;8.80;1.00;;;;;;5057110;28;20173;-44
2023/01/08 08:36:03;;;;;;;1.50;1.30;;;8.80;1.00;;;;;;5056010;28;20414;-44
2023/01/08 08:38:29;;;;;;;2.10;1.63;;;8.90;1.00;;;;;;5055458;28;20842;-44
2023/01/08 08:40:54;;;;;;;1.80;1.50;;;8.90;1.00;;;;;;5055116;28;20420;-44
2023/01/08 08:43:20;;;;;;;2.00;1.53;;;8.90;1.00;;;;;;5054309;28;20189;-44
2023/01/08 08:45:46;;;;;;;1.90;1.30;;;8.90;1.00;;;;;;5055964;28;20291;-44
2023/01/08 08:48:11;;;;;;;2.43;1.30;;;8.90;1.00;;;;;;5054897;28;20197;-45
2023/01/08 08:50:37;;;;;;;1.60;1.43;;;8.90;1.00;;;;;;5055999;28;20228;-44
2023/01/08 08:53:04;;;;;;;2.27;1.20;;;9.00;1.00;;;;;;5056200;28;20178;-44
2023/01/08 08:55:31;;;;;;;2.03;1.50;;;9.00;1.00;;;;;;5055847;28;20213;-45
2023/01/08 08:58:05;;;;;;;2.13;1.20;;;9.10;1.00;;;;;;5055339;28;20424;-44
2023/01/08 09:00:31;;;;;;;2.23;1.50;;;9.10;1.00;;;;;;5055078;28;20674;-44
2023/01/08 09:02:56;;;;;;;2.30;1.67;;;9.10;1.00;;;;;;5056034;28;20428;-44
2023/01/08 09:05:22;;;;;;;2.20;1.10;;;9.10;1.00;;;;;;5055205;28;20428;-44
2023/01/08 09:07:49;;;;;;;1.77;1.30;;;9.20;1.00;;;;;;5056258;28;20616;-44
2023/01/08 09:10:15;;;;;;;1.77;1.23;;;9.20;1.00;;;;;;5054814;28;20601;-45
2023/01/08 09:12:40;;;;;;;1.80;1.50;;;9.20;1.00;;;;;;5054630;28;20806;-44
2023/01/08 09:15:07;;;;;;;3.37;1.47;;;9.20;1.00;;;;;;5054765;28;20193;-44
2023/01/08 09:17:33;;;;;;;1.57;1.40;;;9.30;99.90;;;;;;5053490;28;20204;-45
2023/01/08 09:19:58;;;;;;;1.70;1.30;;;9.30;99.90;;;;;;5052064;28;20421;-43
2023/01/08 09:22:24;;;;;;;1.67;1.40;;;9.40;99.90;;;;;;5053803;28;20448;-44
2023/01/08 09:24:50;;;;;;;1.90;1.33;;;9.40;99.90;;;;;;5056921;28;20291;-44
2023/01/08 09:27:15;;;;;;;1.90;1.30;;;9.40;99.90;;;;;;5055896;28;20704;-45
2023/01/08 09:29:41;;;;;;;1.57;1.20;;;9.50;99.90;;;;;;5057621;28;20198;-44
2023/01/08 09:32:07;;;;;;;1.27;1.10;;;9.60;1.00;;;;;;5056899;28;20181;-44
2023/01/08 09:34:35;;;;;;;1.50;1.20;;;9.60;1.00;;;;;;5058676;28;20542;-49
2023/01/08 09:37:01;;;;;;;2.37;1.50;;;9.60;1.00;;;;;;5058412;28;20423;-44
2023/01/08 09:39:26;;;;;;;1.80;1.40;;;9.60;1.00;;;;;;5057533;28;20416;-44
2023/01/08 09:41:53;;;;;;;2.07;1.40;;;9.60;1.00;;;;;;5058026;28;20744;-44
2023/01/08 09:44:27;;;;;;;3.17;1.63;;;9.60;1.00;;;;;;5057607;28;20196;-44
2023/01/08 09:46:54;;;;;;;1.93;1.50;;;9.90;99.90;;;;;;5059477;28;20463;-45
2023/01/08 09:49:37;;;;;;;2.20;1.57;;;10.30;92.40;;;;;;5059377;28;20420;-44
2023/01/08 09:52:03;;;;;;;2.60;1.50;;;10.80;99.90;;;;;;5056981;28;20500;-44
2023/01/08 09:54:28;;;;;;;2.67;1.63;;;11.30;49.30;;;;;;5057057;28;20415;-44
2023/01/08 09:56:54;;;;;;;1.60;1.50;;;11.60;1.00;;;;;;5056128;28;20174;-44
2023/01/08 09:59:20;;;;;;;1.67;1.23;;;12.00;99.90;;;;;;5056389;28;20184;-44
2023/01/08 10:01:46;;;;;;;1.80;1.40;;;12.30;1.00;;;;;;5055638;28;20292;-44
2023/01/08 10:04:21;;;;;;;2.13;1.60;;;12.40;3.90;;;;;;5054402;28;20599;-44
2023/01/08 10:06:57;;;;;;;1.77;1.33;;;12.40;1.00;;;;;;5055530;28;20695;-45
2023/01/08 10:09:28;;;;;;;1.73;1.27;;;12.10;1.00;;;;;;5054657;28;20443;-44
2023/01/08 10:11:56;;;;;;;1.50;1.30;;;11.90;15.30;;;;;;5055806;28;20435;-44
2023/01/08 10:14:28;;;;;;;1.83;1.63;;;11.60;1.00;;;;;;5055251;28;20416;-43
2023/01/08 10:16:57;;;;;;;2.20;1.23;;;11.40;12.70;;;;;;5054762;28;20424;-44
2023/01/08 10:19:23;;;;;;;1.67;1.30;;;11.30;69.80;;;;;;5057925;28;20408;-44
2023/01/08 10:21:49;;;;;;;2.00;1.47;;;11.20;99.90;;;;;;5056931;28;20827;-44
2023/01/08 10:24:15;;;;;;;1.40;1.17;;;11.10;99.90;;;;;;5055581;28;20503;-43
2023/01/08 10:26:40;;;;;;;1.40;1.03;;;11.00;99.90;;;;;;5055648;28;20511;-44
2023/01/08 10:29:14;;;;;;;2.00;1.40;;;10.90;99.90;;;;;;5057315;28;20194;-44
2023/01/08 10:31:51;;;;;;;2.60;1.30;;;10.90;99.90;;;;;;5057697;28;20227;-43
2023/01/08 10:34:42;;;;;;;1.50;1.27;;;10.90;99.90;;;;;;5054270;28;20416;-44
2023/01/08 10:37:41;;;;;;;2.00;1.60;;;10.90;99.90;;;;;;5056891;28;20416;-43
2023/01/08 10:40:44;;;;;;;1.63;1.23;;;10.90;99.90;;;;;;5055586;28;20420;-44
2023/01/08 10:43:23;;;;;;;1.97;1.37;;;10.90;99.90;;;;;;5055457;28;20510;-44
2023/01/08 10:46:03;;;;;;;1.80;1.40;;;11.00;99.90;;;;;;5054263;28;20895;-43
2023/01/08 10:48:36;;;;;;;1.30;1.00;;;11.00;99.90;;;;;;5055949;28;20440;-44
2023/01/08 10:51:28;;;;;;;1.50;0.93;;;11.10;99.90;;;;;;5056275;28;20464;-43
2023/01/08 10:53:59;;;;;;;1.53;1.07;;;11.20;99.90;;;;;;5036580;28;20430;-44
2023/01/08 10:56:31;;;;;;;1.30;1.00;;;11.30;99.90;;;;;;5035021;28;20431;-44
2023/01/08 10:58:56;;;;;;;1.33;1.00;;;11.40;2.40;;;;;;5035011;28;20512;-44
2023/01/08 11:01:25;;;;;;;2.43;1.40;;;11.60;1.00;;;;;;5034917;28;20566;-44
2023/01/08 11:03:52;;;;;;;1.67;1.30;;;11.70;1.00;;;;;;5035505;28;20710;-44
2023/01/08 11:06:44;;;;;;;2.07;1.60;;;11.90;99.90;;;;;;5036970;28;20425;-44
2023/01/08 11:09:21;;;;;;;2.23;0.90;;;12.00;99.90;;;;;;5037482;28;20813;-44
2023/01/08 11:11:47;;;;;;;2.37;1.47;;;12.10;1.00;;;;;;5037083;28;20463;-45
2023/01/08 11:14:25;;;;;;;1.37;1.13;;;12.30;1.00;;;;;;5036609;28;20856;-44
2023/01/08 11:16:51;;;;;;;1.30;0.83;;;12.40;1.00;;;;;;5037006;28;20408;-43
2023/01/08 11:19:28;;;;;;;1.80;1.10;;;12.50;99.90;;;;;;5036678;28;20428;-43
2023/01/08 11:21:56;;;;;;;1.37;0.80;;;12.50;99.90;;;;;;5037480;28;20513;-44
2023/01/08 11:24:34;;;;;;;2.00;1.07;;;12.60;99.90;;;;;;5036149;28;20428;-44
2023/01/08 11:27:15;;;;;;;1.40;1.00;;;12.60;99.90;;;;;;5037089;28;20435;-44
2023/01/08 11:30:12;;;;;;;2.30;1.10;;;12.60;99.90;;;;;;5035414;28;20417;-44
2023/01/08 11:33:08;;;;;;;1.40;1.17;;;12.60;86.50;;;;;;5035411;28;20499;-44
2023/01/08 11:35:44;;;;;;;1.77;1.30;;;12.70;47.20;;;;;;5031994;28;20421;-44
2023/01/08 11:38:11;;;;;;;1.40;1.30;;;12.70;1.00;;;;;;5033606;28;20417;-44
2023/01/08 11:41:02;;;;;;;1.93;1.13;;;12.80;1.00;;;;;;5036038;28;20876;-44
2023/01/08 11:43:58;;;;;;;3.37;1.10;;;12.80;1.00;;;;;;5034241;28;20429;-45
2023/01/08 11:46:35;;;;;;;1.30;1.20;;;12.80;1.00;;;;;;5034066;28;20457;-44
2023/01/08 11:49:20;;;;;;;2.17;0.97;;;12.80;1.00;;;;;;5034264;28;20480;-45
2023/01/08 11:51:56;;;;;;;1.00;0.80;;;12.80;1.00;;;;;;5036208;28;20487;-45
2023/01/08 11:54:22;;;;;;;1.67;1.17;;;12.70;1.00;;;;;;5033811;28;20413;-45
2023/01/08 11:56:57;;;;;;;1.83;0.90;;;12.70;1.00;;;;;;5033477;28;20417;-42
2023/01/08 12:00:02;;;;;;;1.50;1.00;;;12.70;1.00;;;;;;5030524;28;20185;-42
2023/01/08 12:03:02;;;;;;;1.63;1.00;;;12.60;1.00;;;;;;4980993;28;20431;-43
2023/01/08 12:05:43;;;;;;;1.83;1.23;;;12.60;1.00;;;;;;5003983;28;20716;-44
2023/01/08 12:08:47;;;;;;;1.30;1.10;;;12.60;1.00;;;;;;5035551;28;20425;-44
2023/01/08 12:11:30;;;;;;;1.30;1.10;;;12.50;1.00;;;;;;5034631;28;20756;-44
2023/01/08 12:14:13;;;;;;;1.80;0.90;;;12.50;1.00;;;;;;5035660;28;20417;-44
2023/01/08 12:17:16;;;;;;;1.20;0.90;;;12.50;1.00;;;;;;5034519;28;20552;-44
2023/01/08 12:19:51;;;;;;;1.40;1.10;;;12.60;1.00;;;;;;5034224;28;20424;-44
2023/01/08 12:22:41;;;;;;;1.10;0.80;;;12.60;1.00;;;;;;5035136;28;20424;-44
2023/01/08 12:25:20;;;;;;;1.17;0.87;;;12.60;1.00;;;;;;5032162;28;20449;-45
2023/01/08 12:28:01;;;;;;;1.50;1.23;;;12.60;1.00;;;;;;5035818;28;20432;-44
2023/01/08 12:30:27;;;;;;;1.20;0.80;;;12.70;1.00;;;;;;5035739;28;20464;-44
2023/01/08 12:33:02;;;;;;;1.60;1.10;;;12.70;1.00;;;;;;5036618;28;20432;-44
2023/01/08 12:35:35;;;;;;;1.30;1.00;;;12.80;1.00;;;;;;5035085;28;20204;-44
2023/01/08 12:38:05;;;;;;;1.27;1.00;;;12.80;1.00;;;;;;5036195;28;20420;-44
2023/01/08 12:40:37;;;;;;;2.07;1.10;;;12.80;1.00;;;;;;5034508;28;20721;-44
2023/01/08 12:43:07;;;;;;;1.53;0.90;;;12.80;1.00;;;;;;5035754;28;20423;-44
2023/01/08 12:45:40;;;;;;;1.10;0.70;;;12.80;1.00;;;;;;5035486;28;20514;-44
2023/01/08 12:48:11;;;;;;;2.37;0.80;;;12.80;1.00;;;;;;5035225;28;20809;-45
2023/01/08 12:51:02;;;;;;;2.20;1.00;;;12.80;1.00;;;;;;5035011;28;20503;-44
2023/01/08 12:53:34;;;;;;;1.10;0.70;;;12.80;1.00;;;;;;5033510;28;20417;-44
2023/01/08 12:56:15;;;;;;;1.57;0.80;;;12.70;1.00;;;;;;5034399;28;20636;-44
2023/01/08 12:58:49;;;;;;;1.03;0.83;;;12.70;1.00;;;;;;5033814;28;20413;-45
2023/01/08 13:01:31;;;;;;;1.63;0.90;;;12.70;1.00;;;;;;5036004;28;20435;-44
2023/01/08 13:03:58;;;;;;;1.33;0.70;;;12.60;1.00;;;;;;5036065;28;20682;-44
2023/01/08 13:06:24;;;;;;;1.20;0.80;;;12.50;1.00;;;;;;5035580;28;20444;-43
2023/01/08 13:08:56;;;;;;;1.97;1.10;;;12.40;1.00;;;;;;5035523;28;20429;-43
2023/01/08 13:11:27;;;;;;;1.47;1.10;;;12.40;1.00;;;;;;5033687;28;20618;-43
2023/01/08 13:14:08;;;;;;;1.30;0.90;;;12.30;1.00;;;;;;5033308;28;20432;-43
2023/01/08 13:16:38;;;;;;;1.40;0.90;;;12.20;1.00;;;;;;5034934;28;20678;-43